sensor_id;sensor_type;location;lat;lon;timestamp;temperature;humidity
52919;DHT22;38793;52.690;6.812;2023-12-20T00:01:29;5.50;99.90
52919;DHT22;38793;52.690;6.812;2023-12-20T00:03:54;5.50;99.90
52919;DHT22;38793;52.690;6.812;2023-12-20T00:06:20;5.50;99.90
52919;DHT22;38793;52.690;6.812;2023-12-20T00:08:46;5.60;99.90
52919;DHT22;38793;52.690;6.812;2023-12-20T00:11:11;5.60;99.90
52919;DHT22;38793;52.690;6.812;2023-12-20T00:13:37;5.60;99.90
52919;DHT22;38793;52.690;6.812;2023-12-20T00:16:03;5.60;99.90
52919;DHT22;38793;52.690;6.812;2023-12-20T00:18:29;5.60;99.90
52919;DHT22;38793;52.690;6.812;2023-12-20T00:20:54;5.60;99.90
52919;DHT22;38793;52.690;6.812;2023-12-20T00:23:20;5.60;99.90
52919;DHT22;38793;52.690;6.812;2023-12-20T00:25:45;5.60;99.90
52919;DHT22;38793;52.690;6.812;2023-12-20T00:28:11;5.60;99.90
52919;DHT22;38793;52.690;6.812;2023-12-20T00:30:37;5.60;99.90
52919;DHT22;38793;52.690;6.812;2023-12-20T00:33:02;5.70;99.90
52919;DHT22;38793;52.690;6.812;2023-12-20T00:35:28;5.70;99.90
52919;DHT22;38793;52.690;6.812;2023-12-20T00:37:54;5.70;99.90
52919;DHT22;38793;52.690;6.812;2023-12-20T00:40:19;5.80;99.90
52919;DHT22;38793;52.690;6.812;2023-12-20T00:42:46;5.70;99.90
52919;DHT22;38793;52.690;6.812;2023-12-20T00:45:12;5.70;99.90
52919;DHT22;38793;52.690;6.812;2023-12-20T00:47:38;5.70;99.90
52919;DHT22;38793;52.690;6.812;2023-12-20T00:50:04;5.70;99.90
52919;DHT22;38793;52.690;6.812;2023-12-20T00:52:29;5.60;99.90
52919;DHT22;38793;52.690;6.812;2023-12-20T00:54:55;5.60;99.90
52919;DHT22;38793;52.690;6.812;2023-12-20T00:57:21;5.50;99.90
52919;DHT22;38793;52.690;6.812;2023-12-20T00:59:46;5.50;99.90
52919;DHT22;38793;52.690;6.812;2023-12-20T01:02:12;5.40;99.90
52919;DHT22;38793;52.690;6.812;2023-12-20T01:04:37;5.40;99.90
52919;DHT22;38793;52.690;6.812;2023-12-20T01:07:03;5.40;99.90
52919;DHT22;38793;52.690;6.812;2023-12-20T01:09:28;5.40;99.90
52919;DHT22;38793;52.690;6.812;2023-12-20T01:11:54;5.50;99.90
52919;DHT22;38793;52.690;6.812;2023-12-20T01:14:20;5.50;99.90
52919;DHT22;38793;52.690;6.812;2023-12-20T01:16:45;5.50;99.90
52919;DHT22;38793;52.690;6.812;2023-12-20T01:19:12;5.50;99.90
52919;DHT22;38793;52.690;6.812;2023-12-20T01:21:39;5.50;99.90
52919;DHT22;38793;52.690;6.812;2023-12-20T01:24:04;5.50;99.90
52919;DHT22;38793;52.690;6.812;2023-12-20T01:26:30;5.50;99.90
52919;DHT22;38793;52.690;6.812;2023-12-20T01:28:55;5.50;99.90
52919;DHT22;38793;52.690;6.812;2023-12-20T01:31:21;5.50;99.90
52919;DHT22;38793;52.690;6.812;2023-12-20T01:33:47;5.50;99.90
52919;DHT22;38793;52.690;6.812;2023-12-20T01:36:12;5.50;99.90
52919;DHT22;38793;52.690;6.812;2023-12-20T01:38:38;5.50;99.90
52919;DHT22;38793;52.690;6.812;2023-12-20T01:41:03;5.60;99.90
52919;DHT22;38793;52.690;6.812;2023-12-20T01:43:30;5.60;99.90
52919;DHT22;38793;52.690;6.812;2023-12-20T01:45:59;5.60;99.90
52919;DHT22;38793;52.690;6.812;2023-12-20T01:48:25;5.60;99.90
52919;DHT22;38793;52.690;6.812;2023-12-20T01:50:52;5.50;99.90
52919;DHT22;38793;52.690;6.812;2023-12-20T01:53:19;5.50;99.90
52919;DHT22;38793;52.690;6.812;2023-12-20T01:55:47;5.50;99.90
52919;DHT22;38793;52.690;6.812;2023-12-20T01:58:14;5.60;99.90
52919;DHT22;38793;52.690;6.812;2023-12-20T02:00:40;5.60;99.90
52919;DHT22;38793;52.690;6.812;2023-12-20T02:03:06;5.60;99.90
52919;DHT22;38793;52.690;6.812;2023-12-20T02:05:33;5.60;99.90
52919;DHT22;38793;52.690;6.812;2023-12-20T02:07:59;5.70;99.90
52919;DHT22;38793;52.690;6.812;2023-12-20T02:10:25;5.70;99.90
52919;DHT22;38793;52.690;6.812;2023-12-20T02:12:51;5.70;99.90
52919;DHT22;38793;52.690;6.812;2023-12-20T02:15:17;5.70;99.90
52919;DHT22;38793;52.690;6.812;2023-12-20T02:17:44;5.80;99.90
52919;DHT22;38793;52.690;6.812;2023-12-20T02:20:10;5.80;99.90
52919;DHT22;38793;52.690;6.812;2023-12-20T02:22:36;5.80;99.90
52919;DHT22;38793;52.690;6.812;2023-12-20T02:25:01;5.80;99.90
52919;DHT22;38793;52.690;6.812;2023-12-20T02:27:27;5.80;99.90
52919;DHT22;38793;52.690;6.812;2023-12-20T02:29:54;5.80;99.90
52919;DHT22;38793;52.690;6.812;2023-12-20T02:32:20;5.80;99.90
52919;DHT22;38793;52.690;6.812;2023-12-20T02:34:49;5.90;99.90
52919;DHT22;38793;52.690;6.812;2023-12-20T02:37:15;5.90;99.90
52919;DHT22;38793;52.690;6.812;2023-12-20T02:39:40;5.90;99.90
52919;DHT22;38793;52.690;6.812;2023-12-20T02:42:06;5.90;99.90
52919;DHT22;38793;52.690;6.812;2023-12-20T02:44:32;6.00;99.90
52919;DHT22;38793;52.690;6.812;2023-12-20T02:46:57;6.00;99.90
52919;DHT22;38793;52.690;6.812;2023-12-20T02:49:23;6.00;99.90
52919;DHT22;38793;52.690;6.812;2023-12-20T02:51:49;6.00;99.90
52919;DHT22;38793;52.690;6.812;2023-12-20T02:54:14;6.00;99.90
52919;DHT22;38793;52.690;6.812;2023-12-20T02:56:40;6.10;99.90
52919;DHT22;38793;52.690;6.812;2023-12-20T02:59:05;6.10;99.90
52919;DHT22;38793;52.690;6.812;2023-12-20T03:01:33;6.10;99.90
52919;DHT22;38793;52.690;6.812;2023-12-20T03:03:59;6.10;99.90
52919;DHT22;38793;52.690;6.812;2023-12-20T03:06:25;6.10;99.90
52919;DHT22;38793;52.690;6.812;2023-12-20T03:08:51;6.10;99.90
52919;DHT22;38793;52.690;6.812;2023-12-20T03:11:16;6.10;99.90
52919;DHT22;38793;52.690;6.812;2023-12-20T03:13:42;6.20;99.90
52919;DHT22;38793;52.690;6.812;2023-12-20T03:16:09;6.20;99.90
52919;DHT22;38793;52.690;6.812;2023-12-20T03:18:34;6.20;99.90
52919;DHT22;38793;52.690;6.812;2023-12-20T03:21:00;6.20;99.90
52919;DHT22;38793;52.690;6.812;2023-12-20T03:23:25;6.30;99.90
52919;DHT22;38793;52.690;6.812;2023-12-20T03:25:52;6.30;99.90
52919;DHT22;38793;52.690;6.812;2023-12-20T03:28:18;6.30;99.90
52919;DHT22;38793;52.690;6.812;2023-12-20T03:30:44;6.30;99.90
52919;DHT22;38793;52.690;6.812;2023-12-20T03:33:10;6.30;99.90
52919;DHT22;38793;52.690;6.812;2023-12-20T03:35:36;6.30;99.90
52919;DHT22;38793;52.690;6.812;2023-12-20T03:38:01;6.30;99.90
52919;DHT22;38793;52.690;6.812;2023-12-20T03:40:27;6.30;99.90
52919;DHT22;38793;52.690;6.812;2023-12-20T03:42:53;6.30;99.90
52919;DHT22;38793;52.690;6.812;2023-12-20T03:45:18;6.30;99.90
52919;DHT22;38793;52.690;6.812;2023-12-20T03:47:44;6.30;99.90
52919;DHT22;38793;52.690;6.812;2023-12-20T03:50:09;6.30;99.90
52919;DHT22;38793;52.690;6.812;2023-12-20T03:52:35;6.30;99.90
52919;DHT22;38793;52.690;6.812;2023-12-20T03:55:00;6.30;99.90
52919;DHT22;38793;52.690;6.812;2023-12-20T03:57:26;6.20;99.90
52919;DHT22;38793;52.690;6.812;2023-12-20T03:59:52;6.10;99.90
52919;DHT22;38793;52.690;6.812;2023-12-20T04:02:17;6.20;99.90
52919;DHT22;38793;52.690;6.812;2023-12-20T04:04:43;6.20;99.90
52919;DHT22;38793;52.690;6.812;2023-12-20T04:07:09;6.20;99.90
52919;DHT22;38793;52.690;6.812;2023-12-20T04:09:34;6.20;99.90
52919;DHT22;38793;52.690;6.812;2023-12-20T04:12:00;6.20;99.90
52919;DHT22;38793;52.690;6.812;2023-12-20T04:14:26;6.20;99.90
52919;DHT22;38793;52.690;6.812;2023-12-20T04:16:52;6.20;99.90
52919;DHT22;38793;52.690;6.812;2023-12-20T04:19:18;6.20;99.90
52919;DHT22;38793;52.690;6.812;2023-12-20T04:21:43;6.20;99.90
52919;DHT22;38793;52.690;6.812;2023-12-20T04:24:09;6.20;99.90
52919;DHT22;38793;52.690;6.812;2023-12-20T04:26:34;6.20;99.90
52919;DHT22;38793;52.690;6.812;2023-12-20T04:29:00;6.20;99.90
52919;DHT22;38793;52.690;6.812;2023-12-20T04:31:25;6.20;99.90
52919;DHT22;38793;52.690;6.812;2023-12-20T04:33:51;6.20;99.90
52919;DHT22;38793;52.690;6.812;2023-12-20T04:36:17;6.20;99.90
52919;DHT22;38793;52.690;6.812;2023-12-20T04:38:42;6.30;99.90
52919;DHT22;38793;52.690;6.812;2023-12-20T04:41:08;6.30;99.90
52919;DHT22;38793;52.690;6.812;2023-12-20T04:43:33;6.20;99.90
52919;DHT22;38793;52.690;6.812;2023-12-20T04:45:59;6.30;99.90
52919;DHT22;38793;52.690;6.812;2023-12-20T04:48:25;6.30;99.90
52919;DHT22;38793;52.690;6.812;2023-12-20T04:50:50;6.40;99.90
52919;DHT22;38793;52.690;6.812;2023-12-20T04:53:16;6.40;99.90
52919;DHT22;38793;52.690;6.812;2023-12-20T04:55:41;6.40;99.90
52919;DHT22;38793;52.690;6.812;2023-12-20T04:58:07;6.40;99.90
52919;DHT22;38793;52.690;6.812;2023-12-20T05:00:33;6.40;99.90
52919;DHT22;38793;52.690;6.812;2023-12-20T05:02:58;6.40;99.90
52919;DHT22;38793;52.690;6.812;2023-12-20T05:05:24;6.50;99.90
52919;DHT22;38793;52.690;6.812;2023-12-20T05:07:49;6.50;99.90
52919;DHT22;38793;52.690;6.812;2023-12-20T05:10:15;6.50;99.90
52919;DHT22;38793;52.690;6.812;2023-12-20T05:12:41;6.50;99.90
52919;DHT22;38793;52.690;6.812;2023-12-20T05:15:07;6.60;99.90
52919;DHT22;38793;52.690;6.812;2023-12-20T05:17:33;6.60;99.90
52919;DHT22;38793;52.690;6.812;2023-12-20T05:19:58;6.60;99.90
52919;DHT22;38793;52.690;6.812;2023-12-20T05:22:24;6.60;99.90
52919;DHT22;38793;52.690;6.812;2023-12-20T05:24:50;6.60;99.90
52919;DHT22;38793;52.690;6.812;2023-12-20T05:27:15;6.70;99.90
52919;DHT22;38793;52.690;6.812;2023-12-20T05:29:41;6.70;99.90
52919;DHT22;38793;52.690;6.812;2023-12-20T05:32:06;6.70;99.90
52919;DHT22;38793;52.690;6.812;2023-12-20T05:34:32;6.70;99.90
52919;DHT22;38793;52.690;6.812;2023-12-20T05:36:58;6.70;99.90
52919;DHT22;38793;52.690;6.812;2023-12-20T05:39:23;6.70;99.90
52919;DHT22;38793;52.690;6.812;2023-12-20T05:41:49;6.70;99.90
52919;DHT22;38793;52.690;6.812;2023-12-20T05:44:15;6.80;99.90
52919;DHT22;38793;52.690;6.812;2023-12-20T05:46:40;6.80;99.90
52919;DHT22;38793;52.690;6.812;2023-12-20T05:49:06;6.80;99.90
52919;DHT22;38793;52.690;6.812;2023-12-20T05:51:32;6.80;99.90
52919;DHT22;38793;52.690;6.812;2023-12-20T05:53:58;6.80;99.90
52919;DHT22;38793;52.690;6.812;2023-12-20T05:56:24;6.80;99.90
52919;DHT22;38793;52.690;6.812;2023-12-20T05:58:50;6.80;99.90
52919;DHT22;38793;52.690;6.812;2023-12-20T06:01:16;6.80;99.90
52919;DHT22;38793;52.690;6.812;2023-12-20T06:03:44;6.90;99.90
52919;DHT22;38793;52.690;6.812;2023-12-20T06:06:11;6.90;99.90
52919;DHT22;38793;52.690;6.812;2023-12-20T06:08:38;6.90;99.90
52919;DHT22;38793;52.690;6.812;2023-12-20T06:11:04;6.90;99.90
52919;DHT22;38793;52.690;6.812;2023-12-20T06:13:30;6.90;99.90
52919;DHT22;38793;52.690;6.812;2023-12-20T06:15:56;6.90;99.90
52919;DHT22;38793;52.690;6.812;2023-12-20T06:18:22;7.00;99.90
52919;DHT22;38793;52.690;6.812;2023-12-20T06:20:48;6.90;99.90
52919;DHT22;38793;52.690;6.812;2023-12-20T06:23:14;6.90;99.90
52919;DHT22;38793;52.690;6.812;2023-12-20T06:25:39;7.00;99.90
52919;DHT22;38793;52.690;6.812;2023-12-20T06:28:05;7.00;99.90
52919;DHT22;38793;52.690;6.812;2023-12-20T06:30:31;7.00;99.90
52919;DHT22;38793;52.690;6.812;2023-12-20T06:32:58;7.00;99.90
52919;DHT22;38793;52.690;6.812;2023-12-20T06:35:24;7.00;99.90
52919;DHT22;38793;52.690;6.812;2023-12-20T06:37:50;7.10;99.90
52919;DHT22;38793;52.690;6.812;2023-12-20T06:40:16;7.00;99.90
52919;DHT22;38793;52.690;6.812;2023-12-20T06:42:42;7.10;99.90
52919;DHT22;38793;52.690;6.812;2023-12-20T06:45:08;7.10;99.90
52919;DHT22;38793;52.690;6.812;2023-12-20T06:47:33;7.10;99.90
52919;DHT22;38793;52.690;6.812;2023-12-20T06:49:59;7.10;99.90
52919;DHT22;38793;52.690;6.812;2023-12-20T06:52:25;7.10;99.90
52919;DHT22;38793;52.690;6.812;2023-12-20T06:54:50;7.10;99.90
52919;DHT22;38793;52.690;6.812;2023-12-20T06:57:16;7.10;99.90
52919;DHT22;38793;52.690;6.812;2023-12-20T06:59:42;7.10;99.90
52919;DHT22;38793;52.690;6.812;2023-12-20T07:02:08;7.10;99.90
52919;DHT22;38793;52.690;6.812;2023-12-20T07:04:34;7.10;99.90
52919;DHT22;38793;52.690;6.812;2023-12-20T07:06:59;7.10;99.90
52919;DHT22;38793;52.690;6.812;2023-12-20T07:09:26;7.10;99.90
52919;DHT22;38793;52.690;6.812;2023-12-20T07:11:52;7.10;99.90
52919;DHT22;38793;52.690;6.812;2023-12-20T07:14:18;7.20;99.90
52919;DHT22;38793;52.690;6.812;2023-12-20T07:16:44;7.10;99.90
52919;DHT22;38793;52.690;6.812;2023-12-20T07:19:09;7.20;99.90
52919;DHT22;38793;52.690;6.812;2023-12-20T07:21:35;7.20;99.90
52919;DHT22;38793;52.690;6.812;2023-12-20T07:24:00;7.20;99.90
52919;DHT22;38793;52.690;6.812;2023-12-20T07:26:26;7.20;99.90
52919;DHT22;38793;52.690;6.812;2023-12-20T07:28:52;7.20;99.90
52919;DHT22;38793;52.690;6.812;2023-12-20T07:31:17;7.30;99.90
52919;DHT22;38793;52.690;6.812;2023-12-20T07:33:43;7.30;99.90
52919;DHT22;38793;52.690;6.812;2023-12-20T07:36:09;7.30;99.90
52919;DHT22;38793;52.690;6.812;2023-12-20T07:38:34;7.30;99.90
52919;DHT22;38793;52.690;6.812;2023-12-20T07:41:00;7.30;99.90
52919;DHT22;38793;52.690;6.812;2023-12-20T07:43:26;7.30;99.90
52919;DHT22;38793;52.690;6.812;2023-12-20T07:45:51;7.30;99.90
52919;DHT22;38793;52.690;6.812;2023-12-20T07:48:17;7.30;99.90
52919;DHT22;38793;52.690;6.812;2023-12-20T07:50:42;7.30;99.90
52919;DHT22;38793;52.690;6.812;2023-12-20T07:53:08;7.40;99.90
52919;DHT22;38793;52.690;6.812;2023-12-20T07:55:34;7.40;99.90
52919;DHT22;38793;52.690;6.812;2023-12-20T07:58:00;7.40;99.90
52919;DHT22;38793;52.690;6.812;2023-12-20T08:00:26;7.40;99.90
52919;DHT22;38793;52.690;6.812;2023-12-20T08:02:52;7.40;99.90
52919;DHT22;38793;52.690;6.812;2023-12-20T08:05:18;7.40;99.90
52919;DHT22;38793;52.690;6.812;2023-12-20T08:07:44;7.40;99.90
52919;DHT22;38793;52.690;6.812;2023-12-20T08:10:09;7.40;99.90
52919;DHT22;38793;52.690;6.812;2023-12-20T08:12:35;7.40;99.90
52919;DHT22;38793;52.690;6.812;2023-12-20T08:15:02;7.40;99.90
52919;DHT22;38793;52.690;6.812;2023-12-20T08:17:27;7.30;99.90
52919;DHT22;38793;52.690;6.812;2023-12-20T08:19:53;7.30;99.90
52919;DHT22;38793;52.690;6.812;2023-12-20T08:22:18;7.40;99.90
52919;DHT22;38793;52.690;6.812;2023-12-20T08:24:44;7.40;99.90
52919;DHT22;38793;52.690;6.812;2023-12-20T08:27:10;7.30;99.90
52919;DHT22;38793;52.690;6.812;2023-12-20T08:29:35;7.30;99.90
52919;DHT22;38793;52.690;6.812;2023-12-20T08:32:01;7.30;99.90
52919;DHT22;38793;52.690;6.812;2023-12-20T08:34:27;7.30;99.90
52919;DHT22;38793;52.690;6.812;2023-12-20T08:36:53;7.30;99.90
52919;DHT22;38793;52.690;6.812;2023-12-20T08:39:19;7.40;99.90
52919;DHT22;38793;52.690;6.812;2023-12-20T08:41:45;7.40;99.90
52919;DHT22;38793;52.690;6.812;2023-12-20T08:44:10;7.40;99.90
52919;DHT22;38793;52.690;6.812;2023-12-20T08:46:36;7.40;99.90
52919;DHT22;38793;52.690;6.812;2023-12-20T08:49:02;7.40;99.90
52919;DHT22;38793;52.690;6.812;2023-12-20T08:51:28;7.40;99.90
52919;DHT22;38793;52.690;6.812;2023-12-20T08:53:54;7.50;99.90
52919;DHT22;38793;52.690;6.812;2023-12-20T08:56:20;7.50;99.90
52919;DHT22;38793;52.690;6.812;2023-12-20T08:58:46;7.50;99.90
52919;DHT22;38793;52.690;6.812;2023-12-20T09:01:12;7.60;99.90
52919;DHT22;38793;52.690;6.812;2023-12-20T09:03:38;7.60;99.90
52919;DHT22;38793;52.690;6.812;2023-12-20T09:06:04;7.60;99.90
52919;DHT22;38793;52.690;6.812;2023-12-20T09:08:30;7.60;99.90
52919;DHT22;38793;52.690;6.812;2023-12-20T09:10:56;7.60;99.90
52919;DHT22;38793;52.690;6.812;2023-12-20T09:13:22;7.60;99.90
52919;DHT22;38793;52.690;6.812;2023-12-20T09:15:56;7.70;99.90
52919;DHT22;38793;52.690;6.812;2023-12-20T09:18:21;7.70;99.90
52919;DHT22;38793;52.690;6.812;2023-12-20T09:20:47;7.70;99.90
52919;DHT22;38793;52.690;6.812;2023-12-20T09:23:13;7.70;99.90
52919;DHT22;38793;52.690;6.812;2023-12-20T09:25:38;7.70;99.90
52919;DHT22;38793;52.690;6.812;2023-12-20T09:28:04;7.70;99.90
52919;DHT22;38793;52.690;6.812;2023-12-20T09:30:30;7.80;99.90
52919;DHT22;38793;52.690;6.812;2023-12-20T09:32:55;7.80;99.90
52919;DHT22;38793;52.690;6.812;2023-12-20T09:35:21;7.80;99.90
52919;DHT22;38793;52.690;6.812;2023-12-20T09:37:47;7.80;99.90
52919;DHT22;38793;52.690;6.812;2023-12-20T09:40:13;7.80;99.90
52919;DHT22;38793;52.690;6.812;2023-12-20T09:43:03;7.90;99.90
52919;DHT22;38793;52.690;6.812;2023-12-20T09:45:29;7.90;99.90
52919;DHT22;38793;52.690;6.812;2023-12-20T09:47:56;7.90;99.90
52919;DHT22;38793;52.690;6.812;2023-12-20T09:50:23;7.90;99.90
52919;DHT22;38793;52.690;6.812;2023-12-20T09:52:50;8.00;99.90
52919;DHT22;38793;52.690;6.812;2023-12-20T09:55:20;8.20;99.90
52919;DHT22;38793;52.690;6.812;2023-12-20T09:57:47;8.50;99.90
52919;DHT22;38793;52.690;6.812;2023-12-20T10:00:14;8.60;99.90
52919;DHT22;38793;52.690;6.812;2023-12-20T10:02:50;8.80;99.90
52919;DHT22;38793;52.690;6.812;2023-12-20T10:05:28;8.80;99.90
52919;DHT22;38793;52.690;6.812;2023-12-20T10:07:53;8.80;99.90
52919;DHT22;38793;52.690;6.812;2023-12-20T10:10:19;8.70;99.90
52919;DHT22;38793;52.690;6.812;2023-12-20T10:13:04;8.60;99.90
52919;DHT22;38793;52.690;6.812;2023-12-20T10:15:34;8.50;99.90
52919;DHT22;38793;52.690;6.812;2023-12-20T10:18:01;8.50;99.90
52919;DHT22;38793;52.690;6.812;2023-12-20T10:20:27;8.30;99.90
52919;DHT22;38793;52.690;6.812;2023-12-20T10:22:58;8.10;99.90
52919;DHT22;38793;52.690;6.812;2023-12-20T10:25:24;7.90;99.90
52919;DHT22;38793;52.690;6.812;2023-12-20T10:27:51;7.70;99.90
52919;DHT22;38793;52.690;6.812;2023-12-20T10:30:33;7.50;99.90
52919;DHT22;38793;52.690;6.812;2023-12-20T10:32:59;7.40;99.90
52919;DHT22;38793;52.690;6.812;2023-12-20T10:35:24;7.40;99.90
52919;DHT22;38793;52.690;6.812;2023-12-20T10:37:54;7.30;99.90
52919;DHT22;38793;52.690;6.812;2023-12-20T10:40:21;7.20;99.90
52919;DHT22;38793;52.690;6.812;2023-12-20T10:42:47;7.20;99.90
52919;DHT22;38793;52.690;6.812;2023-12-20T10:45:13;7.10;99.90
52919;DHT22;38793;52.690;6.812;2023-12-20T10:47:39;7.10;99.90
52919;DHT22;38793;52.690;6.812;2023-12-20T10:50:06;7.10;99.90
52919;DHT22;38793;52.690;6.812;2023-12-20T10:52:34;7.10;99.90
52919;DHT22;38793;52.690;6.812;2023-12-20T10:55:01;7.10;99.90
52919;DHT22;38793;52.690;6.812;2023-12-20T10:57:27;7.00;99.90
52919;DHT22;38793;52.690;6.812;2023-12-20T10:59:54;7.00;99.90
52919;DHT22;38793;52.690;6.812;2023-12-20T11:02:21;7.00;99.90
52919;DHT22;38793;52.690;6.812;2023-12-20T11:05:02;6.90;99.90
52919;DHT22;38793;52.690;6.812;2023-12-20T11:07:46;6.90;99.90
52919;DHT22;38793;52.690;6.812;2023-12-20T11:10:34;6.90;99.90
52919;DHT22;38793;52.690;6.812;2023-12-20T11:13:16;6.90;99.90
52919;DHT22;38793;52.690;6.812;2023-12-20T11:15:43;7.00;99.90
52919;DHT22;38793;52.690;6.812;2023-12-20T11:18:09;7.00;99.90
52919;DHT22;38793;52.690;6.812;2023-12-20T11:20:41;7.00;99.90
52919;DHT22;38793;52.690;6.812;2023-12-20T11:23:10;7.00;99.90
52919;DHT22;38793;52.690;6.812;2023-12-20T11:25:57;7.00;99.90
52919;DHT22;38793;52.690;6.812;2023-12-20T11:28:26;7.00;99.90
52919;DHT22;38793;52.690;6.812;2023-12-20T11:30:57;7.00;99.90
52919;DHT22;38793;52.690;6.812;2023-12-20T11:33:38;7.00;99.90
52919;DHT22;38793;52.690;6.812;2023-12-20T11:36:13;7.00;99.90
52919;DHT22;38793;52.690;6.812;2023-12-20T11:38:48;7.00;99.90
52919;DHT22;38793;52.690;6.812;2023-12-20T11:41:15;7.00;99.90
52919;DHT22;38793;52.690;6.812;2023-12-20T11:43:41;7.00;99.90
52919;DHT22;38793;52.690;6.812;2023-12-20T11:46:08;7.10;99.90
52919;DHT22;38793;52.690;6.812;2023-12-20T11:48:38;7.10;99.90
52919;DHT22;38793;52.690;6.812;2023-12-20T11:51:13;7.10;99.90
52919;DHT22;38793;52.690;6.812;2023-12-20T11:53:40;7.10;99.90
52919;DHT22;38793;52.690;6.812;2023-12-20T11:56:07;7.20;99.90
52919;DHT22;38793;52.690;6.812;2023-12-20T11:58:34;7.20;99.90
52919;DHT22;38793;52.690;6.812;2023-12-20T12:01:00;7.20;99.90
52919;DHT22;38793;52.690;6.812;2023-12-20T12:03:27;7.10;99.90
52919;DHT22;38793;52.690;6.812;2023-12-20T12:05:53;7.10;99.90
52919;DHT22;38793;52.690;6.812;2023-12-20T12:08:19;7.10;99.90
52919;DHT22;38793;52.690;6.812;2023-12-20T12:10:45;7.10;99.90
52919;DHT22;38793;52.690;6.812;2023-12-20T12:13:11;7.10;99.90
52919;DHT22;38793;52.690;6.812;2023-12-20T12:15:37;7.10;99.90
52919;DHT22;38793;52.690;6.812;2023-12-20T12:18:03;7.10;99.90
52919;DHT22;38793;52.690;6.812;2023-12-20T12:20:30;7.10;99.90
52919;DHT22;38793;52.690;6.812;2023-12-20T12:23:00;7.10;99.90
52919;DHT22;38793;52.690;6.812;2023-12-20T12:25:26;7.10;99.90
52919;DHT22;38793;52.690;6.812;2023-12-20T12:27:53;7.10;99.90
52919;DHT22;38793;52.690;6.812;2023-12-20T12:30:18;7.10;99.90
52919;DHT22;38793;52.690;6.812;2023-12-20T12:32:44;7.10;99.90
52919;DHT22;38793;52.690;6.812;2023-12-20T12:35:10;7.20;99.90
52919;DHT22;38793;52.690;6.812;2023-12-20T12:37:38;7.20;99.90
52919;DHT22;38793;52.690;6.812;2023-12-20T12:40:12;7.20;99.90
52919;DHT22;38793;52.690;6.812;2023-12-20T12:42:39;7.20;99.90
52919;DHT22;38793;52.690;6.812;2023-12-20T12:45:05;7.20;99.90
52919;DHT22;38793;52.690;6.812;2023-12-20T12:47:31;7.10;99.90
52919;DHT22;38793;52.690;6.812;2023-12-20T12:49:56;7.10;99.90
52919;DHT22;38793;52.690;6.812;2023-12-20T12:52:22;7.10;99.90
52919;DHT22;38793;52.690;6.812;2023-12-20T12:54:48;7.10;99.90
52919;DHT22;38793;52.690;6.812;2023-12-20T12:57:15;7.10;99.90
52919;DHT22;38793;52.690;6.812;2023-12-20T12:59:43;7.10;99.90
52919;DHT22;38793;52.690;6.812;2023-12-20T13:02:11;7.10;99.90
52919;DHT22;38793;52.690;6.812;2023-12-20T13:04:37;7.10;99.90
52919;DHT22;38793;52.690;6.812;2023-12-20T13:07:03;7.00;99.90
52919;DHT22;38793;52.690;6.812;2023-12-20T13:09:29;7.00;99.90
52919;DHT22;38793;52.690;6.812;2023-12-20T13:11:54;6.90;99.90
52919;DHT22;38793;52.690;6.812;2023-12-20T13:14:20;6.90;99.90
52919;DHT22;38793;52.690;6.812;2023-12-20T13:16:45;6.90;99.90
52919;DHT22;38793;52.690;6.812;2023-12-20T13:19:11;6.80;99.90
52919;DHT22;38793;52.690;6.812;2023-12-20T13:21:37;6.80;99.90
52919;DHT22;38793;52.690;6.812;2023-12-20T13:24:03;6.80;99.90
52919;DHT22;38793;52.690;6.812;2023-12-20T13:26:28;6.70;99.90
52919;DHT22;38793;52.690;6.812;2023-12-20T13:28:55;6.70;99.90
52919;DHT22;38793;52.690;6.812;2023-12-20T13:31:21;6.60;99.90
52919;DHT22;38793;52.690;6.812;2023-12-20T13:33:46;6.60;99.90
52919;DHT22;38793;52.690;6.812;2023-12-20T13:36:12;6.60;99.90
52919;DHT22;38793;52.690;6.812;2023-12-20T13:38:38;6.50;99.90
52919;DHT22;38793;52.690;6.812;2023-12-20T13:41:04;6.50;99.90
52919;DHT22;38793;52.690;6.812;2023-12-20T13:43:31;6.40;99.90
52919;DHT22;38793;52.690;6.812;2023-12-20T13:46:01;6.40;99.90
52919;DHT22;38793;52.690;6.812;2023-12-20T13:48:27;6.40;99.90
52919;DHT22;38793;52.690;6.812;2023-12-20T13:50:52;6.40;99.90
52919;DHT22;38793;52.690;6.812;2023-12-20T13:53:18;6.40;99.90
52919;DHT22;38793;52.690;6.812;2023-12-20T13:55:44;6.40;99.90
52919;DHT22;38793;52.690;6.812;2023-12-20T13:58:10;6.40;99.90
52919;DHT22;38793;52.690;6.812;2023-12-20T14:00:36;6.30;99.90
52919;DHT22;38793;52.690;6.812;2023-12-20T14:03:03;6.30;99.90
52919;DHT22;38793;52.690;6.812;2023-12-20T14:05:29;6.30;99.90
52919;DHT22;38793;52.690;6.812;2023-12-20T14:07:55;6.30;99.90
52919;DHT22;38793;52.690;6.812;2023-12-20T14:10:23;6.30;99.90
52919;DHT22;38793;52.690;6.812;2023-12-20T14:12:53;6.30;99.90
52919;DHT22;38793;52.690;6.812;2023-12-20T14:15:19;6.30;99.90
52919;DHT22;38793;52.690;6.812;2023-12-20T14:17:44;6.30;99.90
52919;DHT22;38793;52.690;6.812;2023-12-20T14:20:11;6.30;99.90
52919;DHT22;38793;52.690;6.812;2023-12-20T14:22:39;6.30;99.90
52919;DHT22;38793;52.690;6.812;2023-12-20T14:25:11;6.40;99.90
52919;DHT22;38793;52.690;6.812;2023-12-20T14:27:38;6.40;99.90
52919;DHT22;38793;52.690;6.812;2023-12-20T14:30:04;6.40;99.90
52919;DHT22;38793;52.690;6.812;2023-12-20T14:32:31;6.40;99.90
52919;DHT22;38793;52.690;6.812;2023-12-20T14:34:56;6.40;99.90
52919;DHT22;38793;52.690;6.812;2023-12-20T14:37:22;6.40;99.90
52919;DHT22;38793;52.690;6.812;2023-12-20T14:39:48;6.50;99.90
52919;DHT22;38793;52.690;6.812;2023-12-20T14:42:13;6.40;99.90
52919;DHT22;38793;52.690;6.812;2023-12-20T14:44:42;6.40;99.90
52919;DHT22;38793;52.690;6.812;2023-12-20T14:47:08;6.40;99.90
52919;DHT22;38793;52.690;6.812;2023-12-20T14:49:34;6.40;99.90
52919;DHT22;38793;52.690;6.812;2023-12-20T14:52:01;6.40;99.90
52919;DHT22;38793;52.690;6.812;2023-12-20T14:54:26;6.50;99.90
52919;DHT22;38793;52.690;6.812;2023-12-20T14:56:52;6.50;99.90
52919;DHT22;38793;52.690;6.812;2023-12-20T14:59:18;6.50;99.90
52919;DHT22;38793;52.690;6.812;2023-12-20T15:01:44;6.50;99.90
52919;DHT22;38793;52.690;6.812;2023-12-20T15:04:10;6.50;99.90
52919;DHT22;38793;52.690;6.812;2023-12-20T15:06:36;6.50;99.90
52919;DHT22;38793;52.690;6.812;2023-12-20T15:09:02;6.50;99.90
52919;DHT22;38793;52.690;6.812;2023-12-20T15:11:33;6.60;99.90
52919;DHT22;38793;52.690;6.812;2023-12-20T15:13:58;6.60;99.90
52919;DHT22;38793;52.690;6.812;2023-12-20T15:16:25;6.60;99.90
52919;DHT22;38793;52.690;6.812;2023-12-20T15:18:52;6.70;99.90
52919;DHT22;38793;52.690;6.812;2023-12-20T15:21:19;6.80;99.90
52919;DHT22;38793;52.690;6.812;2023-12-20T15:23:44;6.90;99.90
52919;DHT22;38793;52.690;6.812;2023-12-20T15:26:21;6.90;99.90
52919;DHT22;38793;52.690;6.812;2023-12-20T15:28:47;7.00;99.90
52919;DHT22;38793;52.690;6.812;2023-12-20T15:31:12;7.10;99.90
52919;DHT22;38793;52.690;6.812;2023-12-20T15:33:39;7.10;99.90
52919;DHT22;38793;52.690;6.812;2023-12-20T15:36:05;7.20;99.90
52919;DHT22;38793;52.690;6.812;2023-12-20T15:38:31;7.30;99.90
52919;DHT22;38793;52.690;6.812;2023-12-20T15:40:57;7.30;99.90